Time;durP1;ratioP1;P1;durP2;ratioP2;P2;SDS_P1;SDS_P2;PMS_P1;PMS_P2;Temp;Humidity;BMP_temperature;BMP_pressure;BME280_temperature;BME280_humidity;BME280_pressure;Samples;Min_cycle;Max_cycle;Signal;HPM_P1;HPM_P2
2022/07/08 00:00:25;;;;;;;2.00;0.30;;;26.60;39.20;;;;;;5078373;28;20432;-62
2022/07/08 00:02:52;;;;;;;3.38;1.20;;;26.50;39.10;;;;;;5080798;28;20101;-62
2022/07/08 00:05:19;;;;;;;1.00;0.10;;;26.50;39.20;;;;;;5074090;28;20105;-61
2022/07/08 00:07:46;;;;;;;2.05;0.30;;;26.50;39.20;;;;;;5078375;28;20523;-61
2022/07/08 00:10:13;;;;;;;1.35;0.80;;;26.40;39.20;;;;;;5076235;28;20041;-63
2022/07/08 00:12:42;;;;;;;3.50;0.43;;;26.40;39.30;;;;;;5080798;28;20053;-62
2022/07/08 00:15:11;;;;;;;1.60;0.10;;;26.40;40.00;;;;;;5076261;28;20051;-64
2022/07/08 00:17:38;;;;;;;5.65;0.25;;;26.40;39.40;;;;;;5077783;28;20040;-63
2022/07/08 00:20:06;;;;;;;1.77;0.25;;;26.30;39.40;;;;;;5074005;28;20063;-63
2022/07/08 00:22:33;;;;;;;1.48;0.50;;;26.40;39.50;;;;;;5080535;28;20511;-63
2022/07/08 00:25:01;;;;;;;1.52;0.30;;;26.30;39.50;;;;;;5082307;28;20139;-65
2022/07/08 00:27:28;;;;;;;1.38;0.10;;;26.30;39.60;;;;;;5079239;28;20032;-64
2022/07/08 00:29:56;;;;;;;0.85;0.10;;;26.20;39.50;;;;;;5087348;28;20050;-65
2022/07/08 00:32:24;;;;;;;1.15;0.10;;;26.20;39.50;;;;;;5073922;28;20040;-62
2022/07/08 00:34:51;;;;;;;0.40;0.10;;;26.20;39.50;;;;;;5082336;28;20053;-62
2022/07/08 00:37:18;;;;;;;4.32;0.28;;;26.20;39.50;;;;;;5082359;28;20046;-61
2022/07/08 00:39:45;;;;;;;3.58;0.20;;;26.20;39.60;;;;;;5083397;28;20078;-61
2022/07/08 00:42:12;;;;;;;3.38;0.55;;;26.20;39.70;;;;;;5084072;28;20110;-62
2022/07/08 00:44:39;;;;;;;1.67;0.10;;;26.10;39.60;;;;;;5084767;28;20036;-62
2022/07/08 00:47:08;;;;;;;2.85;0.10;;;26.10;39.60;;;;;;5081432;28;20033;-61
2022/07/08 00:49:35;;;;;;;3.10;1.08;;;26.10;39.60;;;;;;5085982;28;20036;-60
2022/07/08 00:52:03;;;;;;;2.03;0.25;;;26.10;39.70;;;;;;5083411;28;20035;-61
2022/07/08 00:54:30;;;;;;;1.02;0.57;;;26.10;39.60;;;;;;5082504;28;20563;-60
2022/07/08 00:56:58;;;;;;;3.75;0.10;;;26.10;39.70;;;;;;5083439;28;20068;-61
2022/07/08 00:59:25;;;;;;;3.25;0.10;;;26.10;39.60;;;;;;5073214;28;20047;-61
2022/07/08 01:01:53;;;;;;;0.82;0.38;;;26.00;39.60;;;;;;5083012;28;27551;-62
2022/07/08 01:04:22;;;;;;;1.85;0.20;;;26.00;39.60;;;;;;5084790;28;20046;-62
2022/07/08 01:06:49;;;;;;;3.80;0.10;;;26.00;39.50;;;;;;5082071;28;20567;-62
2022/07/08 01:09:16;;;;;;;0.30;0.10;;;26.00;39.50;;;;;;5086839;28;20043;-62
2022/07/08 01:11:46;;;;;;;3.28;0.73;;;25.90;39.50;;;;;;5083413;28;20123;-61
2022/07/08 01:14:13;;;;;;;0.95;0.10;;;25.90;39.50;;;;;;5088392;28;20052;-61
2022/07/08 01:16:40;;;;;;;1.13;0.10;;;25.90;39.50;;;;;;5087612;28;20555;-60
2022/07/08 01:19:08;;;;;;;1.92;0.30;;;25.90;39.50;;;;;;5088219;28;20523;-60
2022/07/08 01:21:36;;;;;;;0.68;0.20;;;25.90;39.50;;;;;;5081502;28;20047;-60
2022/07/08 01:24:03;;;;;;;0.70;0.10;;;25.90;39.50;;;;;;5083503;28;20220;-60
2022/07/08 01:26:31;;;;;;;1.60;0.30;;;25.80;39.50;;;;;;5086463;28;20051;-59
2022/07/08 01:28:58;;;;;;;3.90;0.10;;;25.80;39.40;;;;;;5070846;28;20040;-60
2022/07/08 01:31:25;;;;;;;1.02;0.10;;;25.80;39.50;;;;;;5075724;28;20416;-60
2022/07/08 01:33:52;;;;;;;2.58;0.32;;;25.80;39.60;;;;;;5074341;28;20044;-60
2022/07/08 01:36:19;;;;;;;4.50;0.20;;;25.80;39.70;;;;;;5076454;28;20035;-60
2022/07/08 01:38:48;;;;;;;2.45;0.10;;;25.80;39.70;;;;;;5075163;28;20071;-61
2022/07/08 01:41:15;;;;;;;1.63;0.22;;;25.80;39.80;;;;;;5071054;28;20067;-60
2022/07/08 01:43:42;;;;;;;2.28;0.10;;;25.80;39.80;;;;;;5074586;28;20050;-60
2022/07/08 01:46:09;;;;;;;2.70;0.10;;;25.70;39.80;;;;;;5075664;28;20043;-62
2022/07/08 01:48:36;;;;;;;4.20;0.15;;;25.70;39.80;;;;;;5073446;28;20562;-60
2022/07/08 01:51:03;;;;;;;2.38;0.50;;;25.70;39.80;;;;;;5075813;28;20032;-60
2022/07/08 01:53:30;;;;;;;1.67;0.38;;;25.70;39.90;;;;;;5083333;28;20047;-60
2022/07/08 01:55:58;;;;;;;4.40;0.10;;;25.70;40.00;;;;;;5068194;28;20040;-60
2022/07/08 01:58:25;;;;;;;2.15;0.40;;;25.70;40.00;;;;;;5077377;28;20662;-61
2022/07/08 02:00:53;;;;;;;3.28;0.10;;;25.60;39.90;;;;;;5073797;28;20056;-60
2022/07/08 02:03:20;;;;;;;0.90;0.45;;;25.60;39.90;;;;;;5071192;28;20052;-60
2022/07/08 02:05:47;;;;;;;2.38;0.13;;;25.60;39.90;;;;;;5076305;28;20063;-62
2022/07/08 02:08:15;;;;;;;2.05;0.43;;;25.60;39.80;;;;;;5073990;28;20082;-61
2022/07/08 02:13:28;;;;;;;1.77;0.30;;;25.60;39.90;;;;;;5072039;28;20147;-61
2022/07/08 02:15:56;;;;;;;1.02;0.20;;;25.60;39.90;;;;;;5080683;28;20568;-60
2022/07/08 02:18:23;;;;;;;3.70;0.10;;;25.60;40.00;;;;;;5081428;28;20097;-61
2022/07/08 02:20:51;;;;;;;1.25;0.10;;;25.60;40.10;;;;;;5079845;28;20044;-63
2022/07/08 02:23:18;;;;;;;0.98;0.75;;;25.50;40.00;;;;;;5073507;28;20045;-61
2022/07/08 02:25:45;;;;;;;3.30;0.10;;;25.50;40.00;;;;;;5075840;28;20123;-62
2022/07/08 02:28:12;;;;;;;1.65;0.10;;;25.50;40.10;;;;;;5079279;28;20459;-61
2022/07/08 02:30:40;;;;;;;2.95;0.13;;;25.50;40.70;;;;;;5080240;28;20039;-61
2022/07/08 02:33:07;;;;;;;3.53;0.20;;;25.50;40.30;;;;;;5083351;28;20070;-62
2022/07/08 02:35:34;;;;;;;1.42;0.10;;;25.50;40.30;;;;;;5075550;28;20114;-60
2022/07/08 02:38:01;;;;;;;0.50;0.10;;;25.50;40.20;;;;;;5074244;28;20090;-61
2022/07/08 02:40:29;;;;;;;0.95;0.13;;;25.50;40.30;;;;;;5076421;28;20041;-63
2022/07/08 02:42:55;;;;;;;3.97;0.10;;;25.50;40.30;;;;;;5073240;28;20055;-61
2022/07/08 02:45:23;;;;;;;1.45;0.10;;;25.50;40.30;;;;;;5076575;28;20035;-62
2022/07/08 02:47:51;;;;;;;4.18;0.47;;;25.40;40.30;;;;;;5077099;28;20052;-59
2022/07/08 02:50:18;;;;;;;2.65;0.25;;;25.40;40.40;;;;;;5069594;28;20036;-61
2022/07/08 02:52:45;;;;;;;11.80;0.20;;;25.40;40.40;;;;;;5077081;28;20082;-61
2022/07/08 02:55:12;;;;;;;1.27;0.43;;;25.40;40.40;;;;;;5074314;28;20055;-61
2022/07/08 02:57:39;;;;;;;2.13;0.17;;;25.40;40.40;;;;;;5079468;28;20048;-64
2022/07/08 03:00:08;;;;;;;3.42;0.40;;;25.40;40.40;;;;;;5078313;28;20036;-61
2022/07/08 03:02:35;;;;;;;1.25;0.40;;;25.40;40.40;;;;;;5074686;28;20093;-61
2022/07/08 03:05:03;;;;;;;1.25;0.10;;;25.30;40.90;;;;;;5072385;28;20454;-62
2022/07/08 03:07:30;;;;;;;2.30;0.10;;;25.30;40.30;;;;;;5076277;28;20117;-62
2022/07/08 03:09:58;;;;;;;2.15;0.22;;;25.30;40.30;;;;;;5085155;28;20040;-61
2022/07/08 03:12:25;;;;;;;4.22;0.25;;;25.30;40.30;;;;;;5079969;28;20755;-61
2022/07/08 03:14:52;;;;;;;7.03;0.45;;;25.30;40.30;;;;;;5076669;28;20044;-62
2022/07/08 03:17:19;;;;;;;4.15;0.10;;;25.30;40.30;;;;;;5075213;28;20046;-62
2022/07/08 03:19:46;;;;;;;3.70;0.15;;;25.30;40.30;;;;;;5070031;28;20051;-62
2022/07/08 03:22:15;;;;;;;2.22;0.10;;;25.20;40.30;;;;;;5078583;28;20050;-63
2022/07/08 03:24:42;;;;;;;2.75;0.10;;;25.20;40.30;;;;;;5074148;28;20505;-62
2022/07/08 03:27:09;;;;;;;1.65;0.10;;;25.20;41.00;;;;;;5077226;28;20033;-62
2022/07/08 03:29:36;;;;;;;2.28;0.10;;;25.20;40.40;;;;;;5080216;28;20795;-61
2022/07/08 03:32:03;;;;;;;1.20;0.10;;;25.20;40.40;;;;;;5079713;28;20039;-61
2022/07/08 03:34:30;;;;;;;1.23;0.20;;;25.20;40.50;;;;;;5079480;28;20049;-60
2022/07/08 03:36:57;;;;;;;1.95;0.10;;;25.10;40.50;;;;;;5078797;28;20051;-61
2022/07/08 03:39:26;;;;;;;2.65;0.13;;;25.10;40.50;;;;;;5084872;28;20044;-61
2022/07/08 03:41:52;;;;;;;4.03;0.28;;;25.10;40.50;;;;;;5077233;28;20785;-61
2022/07/08 03:44:19;;;;;;;1.65;0.17;;;25.10;40.60;;;;;;5080706;28;20497;-61
2022/07/08 03:46:46;;;;;;;2.88;0.20;;;25.10;40.50;;;;;;5077161;28;20040;-59
2022/07/08 03:49:13;;;;;;;3.42;0.20;;;25.10;40.60;;;;;;5084035;28;20043;-60
2022/07/08 03:51:40;;;;;;;1.85;0.10;;;25.10;40.60;;;;;;5080885;28;20072;-61
2022/07/08 03:54:07;;;;;;;3.67;0.10;;;25.10;41.30;;;;;;5084170;28;20033;-61
2022/07/08 03:56:36;;;;;;;1.75;0.10;;;25.10;40.70;;;;;;5080739;28;20044;-60
2022/07/08 03:59:03;;;;;;;2.85;0.20;;;25.00;40.70;;;;;;5078760;28;20504;-61
2022/07/08 04:01:30;;;;;;;3.30;0.47;;;25.10;40.70;;;;;;5083780;28;20153;-61
2022/07/08 04:03:57;;;;;;;1.05;0.20;;;25.00;41.30;;;;;;5081429;28;20050;-60
2022/07/08 04:06:24;;;;;;;2.92;0.10;;;25.00;40.70;;;;;;5085299;28;20071;-60
2022/07/08 04:08:51;;;;;;;7.05;0.20;;;25.00;40.70;;;;;;5088086;28;20050;-60
2022/07/08 04:11:18;;;;;;;1.50;0.28;;;25.00;40.70;;;;;;5079046;28;20047;-59
2022/07/08 04:13:48;;;;;;;3.85;0.30;;;25.00;40.70;;;;;;5078225;28;20114;-59
2022/07/08 04:16:15;;;;;;;1.60;0.10;;;25.00;40.70;;;;;;5084824;28;20609;-60
2022/07/08 04:18:43;;;;;;;0.95;0.40;;;24.90;40.70;;;;;;5080132;28;20154;-60
2022/07/08 04:21:10;;;;;;;4.63;0.10;;;24.90;40.70;;;;;;5083530;28;20527;-60
2022/07/08 04:23:37;;;;;;;2.08;0.10;;;25.00;40.70;;;;;;5084050;28;20040;-62
2022/07/08 04:26:05;;;;;;;0.52;0.20;;;24.90;40.70;;;;;;5080610;28;20051;-62
2022/07/08 04:28:32;;;;;;;3.90;0.10;;;24.90;40.70;;;;;;5077115;28;20048;-62
2022/07/08 04:31:00;;;;;;;5.82;0.38;;;24.90;40.60;;;;;;5086776;28;20040;-62
2022/07/08 04:33:27;;;;;;;1.85;0.43;;;24.90;40.60;;;;;;5078573;28;20393;-62
2022/07/08 04:35:54;;;;;;;6.55;0.10;;;24.90;41.20;;;;;;5086896;28;20117;-61
2022/07/08 04:38:21;;;;;;;0.88;0.20;;;24.90;40.60;;;;;;5089838;28;20070;-64
2022/07/08 04:40:48;;;;;;;4.32;0.35;;;24.90;40.60;;;;;;5075119;28;20116;-61
2022/07/08 04:43:15;;;;;;;1.98;0.22;;;24.90;40.60;;;;;;5088668;28;20046;-62
2022/07/08 04:45:42;;;;;;;1.15;0.55;;;24.90;41.00;;;;;;5078604;28;20040;-62
2022/07/08 04:48:12;;;;;;;1.55;0.10;;;24.90;40.70;;;;;;5081864;28;20032;-61
2022/07/08 04:50:39;;;;;;;1.90;0.35;;;24.90;40.70;;;;;;5073041;28;20037;-62
2022/07/08 04:53:06;;;;;;;6.22;0.60;;;24.90;40.70;;;;;;5087366;28;20073;-62
2022/07/08 04:55:33;;;;;;;4.65;0.30;;;24.90;40.70;;;;;;5077197;28;20072;-61
2022/07/08 04:58:02;;;;;;;0.85;0.10;;;24.90;40.70;;;;;;5081713;28;20583;-61
2022/07/08 05:00:30;;;;;;;2.05;0.15;;;24.90;40.80;;;;;;5080437;28;20032;-61
2022/07/08 05:02:57;;;;;;;4.72;0.28;;;24.90;40.80;;;;;;5074592;28;20040;-62
2022/07/08 05:05:27;;;;;;;2.80;0.22;;;24.90;40.80;;;;;;5059624;28;20048;-61
2022/07/08 05:07:55;;;;;;;2.05;0.32;;;24.90;40.80;;;;;;5078001;28;20070;-62
2022/07/08 05:10:22;;;;;;;3.90;0.20;;;24.90;40.70;;;;;;5076720;28;20045;-61
2022/07/08 05:12:50;;;;;;;2.47;0.20;;;24.90;40.80;;;;;;5081399;28;20531;-61
2022/07/08 05:15:17;;;;;;;3.10;0.13;;;24.90;40.70;;;;;;5081245;28;20126;-61
2022/07/08 05:17:45;;;;;;;0.40;0.30;;;24.90;40.70;;;;;;5076406;28;20055;-61
2022/07/08 05:20:12;;;;;;;1.05;0.28;;;24.90;40.70;;;;;;5079677;28;20508;-61
2022/07/08 05:22:41;;;;;;;1.83;0.15;;;24.90;40.70;;;;;;5078567;28;20378;-61
2022/07/08 05:25:09;;;;;;;1.13;0.20;;;24.90;40.70;;;;;;5085647;28;20040;-61
2022/07/08 05:27:36;;;;;;;1.23;0.20;;;24.90;40.70;;;;;;5084567;28;20051;-61
2022/07/08 05:30:05;;;;;;;2.20;0.22;;;24.90;40.70;;;;;;5082811;28;20067;-61
2022/07/08 05:32:32;;;;;;;3.75;0.25;;;24.90;40.70;;;;;;5071518;28;20048;-60
2022/07/08 05:35:00;;;;;;;4.10;0.20;;;24.90;40.70;;;;;;5087375;28;20071;-61
2022/07/08 05:37:27;;;;;;;2.00;0.30;;;24.90;40.70;;;;;;5073039;28;20078;-61
2022/07/08 05:39:56;;;;;;;4.65;0.30;;;24.90;40.70;;;;;;5089097;28;20063;-60
2022/07/08 05:42:23;;;;;;;3.35;0.20;;;24.90;40.70;;;;;;5083499;28;20115;-62
2022/07/08 05:44:50;;;;;;;0.90;0.65;;;24.90;40.70;;;;;;5083551;28;20071;-61
2022/07/08 05:47:17;;;;;;;3.05;0.10;;;24.90;40.70;;;;;;5082272;28;20040;-61
2022/07/08 05:49:44;;;;;;;1.70;0.43;;;24.90;40.70;;;;;;5079791;28;20045;-61
2022/07/08 05:52:12;;;;;;;1.35;0.20;;;24.90;40.70;;;;;;5082677;28;20028;-61
2022/07/08 05:54:39;;;;;;;4.82;0.28;;;24.90;40.70;;;;;;5082641;28;20064;-61
2022/07/08 05:57:07;;;;;;;1.05;0.10;;;24.90;40.60;;;;;;5082815;28;20066;-61
2022/07/08 05:59:35;;;;;;;3.72;0.20;;;24.90;40.60;;;;;;5063991;28;20040;-61
2022/07/08 06:02:02;;;;;;;3.88;0.75;;;24.90;40.60;;;;;;5083465;28;20055;-61
2022/07/08 06:04:29;;;;;;;2.55;0.25;;;24.90;40.50;;;;;;5085089;28;20117;-62
2022/07/08 06:06:56;;;;;;;5.03;0.95;;;24.90;40.50;;;;;;5076587;28;20068;-61
2022/07/08 06:09:24;;;;;;;2.58;0.40;;;24.90;40.40;;;;;;5075003;28;20044;-61
2022/07/08 06:11:51;;;;;;;5.30;0.65;;;24.90;40.40;;;;;;5056226;28;20435;-61
2022/07/08 06:14:20;;;;;;;1.70;0.20;;;24.90;40.40;;;;;;5074510;28;20045;-61
2022/07/08 06:16:48;;;;;;;4.35;0.35;;;24.90;40.40;;;;;;5080294;28;20392;-61
2022/07/08 06:19:15;;;;;;;8.15;0.95;;;24.90;40.40;;;;;;5076136;28;20037;-60
2022/07/08 06:21:42;;;;;;;3.35;0.43;;;24.90;40.40;;;;;;5080186;28;20040;-61
2022/07/08 06:24:09;;;;;;;2.42;0.20;;;24.90;40.20;;;;;;5079584;28;20052;-61
2022/07/08 06:26:37;;;;;;;5.28;0.20;;;24.90;40.00;;;;;;5082315;28;20520;-61
2022/07/08 06:29:04;;;;;;;2.38;0.10;;;24.90;39.90;;;;;;5085963;28;20074;-62
2022/07/08 06:31:33;;;;;;;4.63;0.20;;;24.80;40.60;;;;;;5079251;28;20155;-62
2022/07/08 06:34:00;;;;;;;2.53;0.30;;;24.80;40.10;;;;;;5078079;28;20044;-61
2022/07/08 06:36:27;;;;;;;7.78;0.30;;;24.80;40.10;;;;;;5075572;28;20119;-62
2022/07/08 06:38:54;;;;;;;2.72;0.65;;;24.70;40.00;;;;;;5075764;28;20058;-61
2022/07/08 06:41:22;;;;;;;3.80;0.68;;;24.70;40.10;;;;;;5069189;28;20044;-61
2022/07/08 06:43:49;;;;;;;2.88;0.30;;;24.70;40.20;;;;;;5079119;28;20517;-61
2022/07/08 06:46:16;;;;;;;5.20;0.28;;;24.70;40.20;;;;;;5077047;28;20085;-61
2022/07/08 06:48:44;;;;;;;6.13;0.30;;;24.70;40.10;;;;;;5082037;28;20575;-61
2022/07/08 06:51:12;;;;;;;7.05;0.82;;;24.60;40.00;;;;;;5077904;28;20040;-58
2022/07/08 06:56:23;;;;;;;3.95;0.73;;;24.60;40.10;;;;;;5071454;28;20039;-61
2022/07/08 06:58:50;;;;;;;1.42;0.28;;;24.60;40.10;;;;;;5073184;28;20064;-61
2022/07/08 07:01:17;;;;;;;3.60;0.22;;;24.60;40.10;;;;;;5079612;28;20036;-61
2022/07/08 07:03:46;;;;;;;9.15;0.20;;;24.60;40.10;;;;;;5077614;28;20396;-62
2022/07/08 07:06:13;;;;;;;8.68;1.05;;;24.60;40.10;;;;;;5078637;28;20058;-62
2022/07/08 07:08:40;;;;;;;2.42;0.20;;;24.60;40.10;;;;;;5078411;28;20032;-61
2022/07/08 07:11:07;;;;;;;2.78;0.20;;;24.60;40.00;;;;;;5076185;28;20067;-61
2022/07/08 07:13:34;;;;;;;6.75;0.73;;;24.60;40.00;;;;;;5086790;28;20138;-60
2022/07/08 07:16:01;;;;;;;2.88;0.40;;;24.60;40.10;;;;;;5080895;28;20071;-60
2022/07/08 07:18:28;;;;;;;4.90;0.30;;;24.60;40.10;;;;;;5084679;28;20511;-61
2022/07/08 07:20:56;;;;;;;1.80;0.35;;;24.60;40.10;;;;;;5084603;28;20039;-60
2022/07/08 07:23:23;;;;;;;4.65;0.60;;;24.60;40.00;;;;;;5085365;28;20035;-59
2022/07/08 07:25:50;;;;;;;2.42;0.40;;;24.60;40.00;;;;;;5084986;28;20957;-60
2022/07/08 07:28:18;;;;;;;8.30;0.80;;;24.60;40.10;;;;;;5088058;28;20032;-55
2022/07/08 07:30:45;;;;;;;2.63;0.20;;;24.60;40.10;;;;;;5079855;28;20071;-60
2022/07/08 07:33:12;;;;;;;3.17;0.77;;;24.60;39.70;;;;;;5079623;28;20056;-61
2022/07/08 07:35:39;;;;;;;6.43;0.55;;;24.60;39.60;;;;;;5072670;28;20115;-63
2022/07/08 07:38:07;;;;;;;3.85;0.50;;;24.60;39.50;;;;;;5082801;28;20040;-66
2022/07/08 07:40:35;;;;;;;4.88;1.20;;;24.70;39.30;;;;;;5080033;28;20068;-65
2022/07/08 07:43:02;;;;;;;7.25;1.88;;;24.90;39.30;;;;;;5075625;28;20045;-67
2022/07/08 07:45:28;;;;;;;2.95;0.32;;;25.00;38.90;;;;;;5075982;28;20382;-56
2022/07/08 07:47:55;;;;;;;5.90;0.70;;;25.20;38.70;;;;;;5073027;28;20044;-55
2022/07/08 07:50:23;;;;;;;3.47;1.27;;;25.40;38.40;;;;;;5080731;28;20101;-57
2022/07/08 07:52:50;;;;;;;9.60;0.32;;;25.50;38.00;;;;;;5077866;28;20044;-65
2022/07/08 07:55:19;;;;;;;4.55;0.38;;;25.70;37.80;;;;;;5077519;28;20040;-63
2022/07/08 07:57:48;;;;;;;5.40;0.52;;;25.90;37.50;;;;;;5074894;28;20587;-63
2022/07/08 08:00:16;;;;;;;1.70;0.40;;;26.00;37.90;;;;;;5076366;28;20517;-64
2022/07/08 08:02:44;;;;;;;5.05;0.63;;;26.20;37.10;;;;;;5083832;28;20044;-58
2022/07/08 08:05:12;;;;;;;3.42;0.45;;;26.20;37.30;;;;;;5084658;28;20082;-54
2022/07/08 08:07:40;;;;;;;2.05;0.22;;;26.40;37.30;;;;;;5078181;28;20060;-54
2022/07/08 08:10:08;;;;;;;3.40;0.73;;;26.50;37.10;;;;;;5075990;28;20131;-60
2022/07/08 08:12:36;;;;;;;4.45;0.85;;;26.70;37.00;;;;;;5080733;28;20109;-61
2022/07/08 08:15:04;;;;;;;6.30;0.65;;;26.80;36.80;;;;;;5080417;28;20451;-57
2022/07/08 08:17:36;;;;;;;8.13;0.50;;;26.90;36.50;;;;;;5081584;28;20036;-51
2022/07/08 08:20:04;;;;;;;6.30;0.88;;;27.00;36.10;;;;;;5085126;28;20643;-52
2022/07/08 08:22:32;;;;;;;5.28;0.35;;;27.10;36.00;;;;;;5060917;28;20455;-53
2022/07/08 08:24:59;;;;;;;2.10;0.47;;;27.20;35.80;;;;;;5082970;28;20044;-52
2022/07/08 08:27:26;;;;;;;3.50;0.22;;;27.30;35.50;;;;;;5078021;28;20771;-55
2022/07/08 08:29:54;;;;;;;6.85;0.57;;;27.40;35.40;;;;;;5074851;28;20081;-62
2022/07/08 08:32:22;;;;;;;2.70;0.45;;;27.50;35.40;;;;;;5081663;28;20042;-59
2022/07/08 08:34:49;;;;;;;2.95;0.85;;;27.50;35.30;;;;;;5081537;28;20054;-60
2022/07/08 08:37:16;;;;;;;3.53;0.63;;;27.60;35.00;;;;;;5082139;28;20040;-60
2022/07/08 08:39:43;;;;;;;7.22;0.95;;;27.70;34.90;;;;;;5084852;28;20528;-60
2022/07/08 08:42:10;;;;;;;1.40;0.30;;;27.80;34.90;;;;;;5081063;28;20047;-59
2022/07/08 08:44:38;;;;;;;3.85;0.40;;;27.90;34.70;;;;;;5082759;28;20115;-59
2022/07/08 08:47:08;;;;;;;1.75;0.85;;;28.00;34.40;;;;;;5082143;28;20492;-57
2022/07/08 08:49:36;;;;;;;4.82;0.40;;;28.10;34.10;;;;;;5074115;28;20797;-58
2022/07/08 08:52:04;;;;;;;5.97;1.25;;;28.10;33.90;;;;;;5087046;28;20044;-61
2022/07/08 08:54:35;;;;;;;4.85;0.40;;;28.20;33.90;;;;;;5083973;28;20086;-58
2022/07/08 08:57:02;;;;;;;0.82;0.75;;;28.40;33.80;;;;;;5082380;28;20074;-56
2022/07/08 08:59:30;;;;;;;5.15;1.00;;;28.40;33.60;;;;;;5075236;28;20499;-54
2022/07/08 09:01:58;;;;;;;7.05;0.40;;;28.50;33.60;;;;;;5084825;28;20504;-55
2022/07/08 09:04:28;;;;;;;8.95;0.77;;;28.60;33.30;;;;;;5076310;28;20101;-51
2022/07/08 09:06:55;;;;;;;4.10;0.50;;;28.60;33.10;;;;;;5078634;28;20097;-53
2022/07/08 09:09:22;;;;;;;2.65;0.43;;;28.70;33.00;;;;;;5078545;28;20544;-55
2022/07/08 09:11:49;;;;;;;4.55;0.38;;;28.80;33.60;;;;;;5094665;28;20042;-56
2022/07/08 09:14:17;;;;;;;5.57;0.60;;;28.80;32.50;;;;;;5075777;28;20073;-53
2022/07/08 09:17:09;;;;;;;6.82;0.73;;;28.90;32.50;;;;;;5078010;28;20408;-55
2022/07/08 09:19:37;;;;;;;3.13;0.30;;;29.00;32.30;;;;;;5075634;28;20079;-51
2022/07/08 09:22:06;;;;;;;2.85;0.82;;;29.00;32.30;;;;;;5075438;28;20054;-55
2022/07/08 09:24:33;;;;;;;6.47;0.22;;;29.10;32.30;;;;;;5083243;28;20060;-66
2022/07/08 09:27:04;;;;;;;4.63;1.00;;;29.20;32.60;;;;;;5073968;28;20043;-64
2022/07/08 09:29:31;;;;;;;15.13;1.05;;;29.20;32.50;;;;;;5080179;28;20062;-61
2022/07/08 09:32:11;;;;;;;3.70;0.40;;;29.30;32.30;;;;;;5084207;28;20140;-59
2022/07/08 09:34:39;;;;;;;5.32;0.52;;;29.30;32.10;;;;;;5082850;28;20033;-58
2022/07/08 09:39:52;;;;;;;;;;;29.40;31.70;;;;;;5075896;28;20049;-61
2022/07/08 09:42:19;;;;;;;1.02;0.10;;;29.40;31.90;;;;;;5091745;28;19962;-61
2022/07/08 09:44:51;;;;;;;2.05;0.20;;;29.40;31.90;;;;;;5084818;28;20044;-67
2022/07/08 09:47:18;;;;;;;1.67;0.75;;;29.50;31.80;;;;;;5058603;28;20042;-64
2022/07/08 09:49:48;;;;;;;4.95;0.57;;;29.60;31.50;;;;;;5072642;28;20040;-64
2022/07/08 09:52:21;;;;;;;2.45;0.50;;;29.60;31.30;;;;;;5079234;28;20075;-62
2022/07/08 09:55:00;;;;;;;6.85;1.15;;;29.70;31.20;;;;;;5075272;28;20043;-64
2022/07/08 09:57:29;;;;;;;4.43;0.47;;;29.70;31.50;;;;;;5062347;28;20132;-63
2022/07/08 09:59:56;;;;;;;4.85;0.70;;;29.70;30.90;;;;;;5075697;28;20032;-62
2022/07/08 10:02:24;;;;;;;3.60;0.45;;;29.80;31.00;;;;;;5083533;28;20032;-69
2022/07/08 10:04:53;;;;;;;1.85;0.30;;;29.90;31.20;;;;;;5085693;28;20079;-72
2022/07/08 10:07:21;;;;;;;1.73;0.20;;;29.90;31.10;;;;;;5085207;28;20046;-74
2022/07/08 10:09:48;;;;;;;1.20;0.20;;;30.00;31.10;;;;;;5067623;28;20614;-71
2022/07/08 10:12:16;;;;;;;2.15;0.35;;;30.00;31.00;;;;;;5077789;28;20036;-76
2022/07/08 10:14:46;;;;;;;8.63;0.52;;;30.00;30.50;;;;;;5084714;28;20633;-67
2022/07/08 10:17:17;;;;;;;0.65;0.20;;;30.10;30.30;;;;;;5081551;28;20436;-68
2022/07/08 10:19:46;;;;;;;2.97;0.50;;;30.10;30.40;;;;;;5074798;28;20070;-66
2022/07/08 10:22:17;;;;;;;1.33;0.40;;;30.20;30.30;;;;;;5087962;28;20136;-65
2022/07/08 10:24:46;;;;;;;7.72;0.60;;;30.20;30.00;;;;;;5076841;28;20059;-67
2022/07/08 10:27:13;;;;;;;3.10;0.70;;;30.20;30.00;;;;;;5079854;28;20040;-67
2022/07/08 10:29:40;;;;;;;8.07;1.10;;;30.30;30.00;;;;;;5080079;28;20036;-49
2022/07/08 10:32:24;;;;;;;3.25;0.20;;;30.30;29.90;;;;;;5075427;28;20037;-51
2022/07/08 10:35:10;;;;;;;2.97;0.32;;;30.40;29.70;;;;;;5081426;28;20044;-53
2022/07/08 10:37:49;;;;;;;2.47;0.40;;;30.40;29.60;;;;;;5082927;28;20043;-52
2022/07/08 10:40:48;;;;;;;2.97;0.20;;;30.40;29.50;;;;;;5074799;28;20499;-53
2022/07/08 10:43:23;;;;;;;4.25;0.20;;;30.50;29.40;;;;;;5082123;28;20040;-64
2022/07/08 10:46:12;;;;;;;5.75;0.93;;;30.50;29.40;;;;;;5086186;28;20047;-64
2022/07/08 10:48:55;;;;;;;5.88;0.88;;;30.60;29.50;;;;;;5072379;28;20032;-60
2022/07/08 10:51:50;;;;;;;2.47;0.30;;;30.70;29.70;;;;;;5070140;28;20040;-60
2022/07/08 10:54:37;;;;;;;1.95;0.40;;;30.70;29.70;;;;;;5084369;28;20075;-55
2022/07/08 10:57:10;;;;;;;3.42;0.47;;;30.80;29.60;;;;;;5080142;28;20038;-57
2022/07/08 10:59:38;;;;;;;2.35;0.30;;;30.80;29.50;;;;;;5078337;28;20044;-61
2022/07/08 11:02:07;;;;;;;3.20;0.28;;;30.80;29.80;;;;;;5083563;28;20033;-62
2022/07/08 11:04:46;;;;;;;3.85;0.20;;;30.90;29.40;;;;;;5084674;28;20079;-61
2022/07/08 11:07:29;;;;;;;5.40;0.88;;;31.00;29.50;;;;;;5075438;28;20052;-57
2022/07/08 11:10:06;;;;;;;1.10;0.20;;;31.00;29.40;;;;;;5083280;28;20039;-55
2022/07/08 11:12:34;;;;;;;1.73;0.30;;;31.10;29.50;;;;;;5076754;28;20082;-61
2022/07/08 11:15:05;;;;;;;5.28;0.20;;;31.10;29.30;;;;;;5077946;28;20043;-71
2022/07/08 11:17:33;;;;;;;3.53;0.30;;;31.20;29.20;;;;;;5064722;28;20047;-66
2022/07/08 11:20:02;;;;;;;5.30;0.43;;;31.20;29.00;;;;;;5080373;28;20485;-68
2022/07/08 11:22:34;;;;;;;2.55;0.32;;;31.20;28.90;;;;;;5076430;28;20064;-66
2022/07/08 11:25:03;;;;;;;0.28;0.10;;;31.30;28.80;;;;;;5080411;28;20551;-66
2022/07/08 11:27:33;;;;;;;1.55;0.10;;;31.30;28.70;;;;;;5071303;28;20040;-68
2022/07/08 11:30:01;;;;;;;2.67;0.38;;;31.40;28.70;;;;;;5077977;28;20044;-54
2022/07/08 11:32:30;;;;;;;3.17;0.20;;;31.40;28.60;;;;;;5068005;28;20033;-53
2022/07/08 11:34:57;;;;;;;3.72;0.10;;;31.40;28.50;;;;;;5074574;28;20044;-54
2022/07/08 11:37:25;;;;;;;0.93;0.20;;;31.50;28.60;;;;;;5075255;28;20041;-59
2022/07/08 11:39:52;;;;;;;1.38;0.10;;;31.60;28.90;;;;;;5098284;28;20047;-54
2022/07/08 11:42:21;;;;;;;0.77;0.40;;;31.60;28.40;;;;;;5093136;28;20028;-56
2022/07/08 11:44:48;;;;;;;2.28;0.10;;;31.60;28.50;;;;;;5082895;28;20035;-58
2022/07/08 11:47:18;;;;;;;4.38;0.20;;;31.70;28.60;;;;;;5091400;28;20046;-53
2022/07/08 11:49:46;;;;;;;1.52;0.30;;;31.80;28.70;;;;;;5074066;28;20037;-65
2022/07/08 11:52:16;;;;;;;1.88;0.35;;;31.80;28.80;;;;;;5086005;28;20094;-64
2022/07/08 11:54:46;;;;;;;1.88;0.20;;;31.80;29.00;;;;;;5078908;28;20049;-63
2022/07/08 11:57:14;;;;;;;3.58;0.20;;;31.80;29.20;;;;;;5067486;28;20048;-62
2022/07/08 11:59:44;;;;;;;6.22;0.30;;;31.90;29.60;;;;;;5088348;28;20401;-61
2022/07/08 12:02:13;;;;;;;3.03;0.13;;;31.90;29.20;;;;;;5074688;28;20158;-61
2022/07/08 12:04:44;;;;;;;4.20;0.85;;;31.90;29.10;;;;;;5081802;28;20500;-61
2022/07/08 12:07:22;;;;;;;5.30;0.57;;;31.90;29.30;;;;;;5079516;28;20091;-56
2022/07/08 12:09:54;;;;;;;3.38;0.20;;;32.00;29.30;;;;;;5082191;28;20119;-60
2022/07/08 12:12:22;;;;;;;2.72;0.25;;;32.00;29.30;;;;;;5076346;28;20119;-60
2022/07/08 12:14:51;;;;;;;2.00;0.50;;;32.00;29.50;;;;;;5074633;28;20089;-60
2022/07/08 12:17:25;;;;;;;5.38;0.40;;;32.00;29.50;;;;;;5076287;28;20070;-60
2022/07/08 12:19:53;;;;;;;1.47;0.20;;;31.90;29.50;;;;;;5074959;28;20543;-60
2022/07/08 12:22:42;;;;;;;2.25;0.52;;;32.00;29.60;;;;;;5088533;28;20039;-60
2022/07/08 12:25:09;;;;;;;0.20;0.13;;;32.00;29.60;;;;;;5074835;28;20040;-60
2022/07/08 12:27:36;;;;;;;4.13;0.30;;;31.90;29.70;;;;;;5073666;28;20056;-60
2022/07/08 12:30:07;;;;;;;4.85;0.40;;;31.90;29.60;;;;;;5065234;28;20119;-58
2022/07/08 12:32:37;;;;;;;0.45;0.10;;;31.90;29.60;;;;;;5091468;28;20040;-60
2022/07/08 12:35:05;;;;;;;2.63;0.10;;;31.80;29.70;;;;;;5075607;28;20033;-62
2022/07/08 12:37:32;;;;;;;5.20;0.20;;;31.70;29.90;;;;;;5074709;28;20048;-64
2022/07/08 12:40:16;;;;;;;2.45;0.10;;;31.60;30.40;;;;;;5084613;28;20427;-62
2022/07/08 12:42:44;;;;;;;1.38;0.10;;;31.60;30.00;;;;;;5063478;28;20520;-65
2022/07/08 12:45:18;;;;;;;2.38;0.10;;;31.50;30.00;;;;;;5081420;28;20063;-63
2022/07/08 12:47:46;;;;;;;2.97;0.47;;;31.50;30.00;;;;;;5080175;28;20135;-60
2022/07/08 12:50:19;;;;;;;1.75;0.45;;;31.40;30.60;;;;;;5083578;28;20163;-65
2022/07/08 12:52:46;;;;;;;3.13;0.10;;;31.40;30.00;;;;;;5076505;28;20138;-63
2022/07/08 12:55:13;;;;;;;1.08;0.10;;;31.40;30.00;;;;;;5081633;28;20036;-55
2022/07/08 12:57:40;;;;;;;4.07;0.30;;;31.50;30.00;;;;;;5088719;28;20046;-54
2022/07/08 13:00:08;;;;;;;1.40;0.10;;;31.60;30.00;;;;;;5080931;28;20040;-55
2022/07/08 13:02:38;;;;;;;1.65;0.10;;;31.60;29.90;;;;;;5077499;28;20076;-57